Pagrindinis puslapis
METAR-TAF:

METAR-TAF

Oro uostai :

Medeljinas, Kolumbija

platuma: 06-13N, ilguma: 075-36W, Aukštis: 1490 m

Dabartinis oras

Ataskaita buvo paskelbta 1 valandą ir 25 minutes, ne 13:00 UTC
Vėjas 4 kt iš Šiaurės, svyruoja nuo Šiaurės/Šiaurės Vakarų ir Šiaurės Rytų
Temperatūra 23°C
Drėgmė 69%
Slėgis 1020 hPa
Matomumas: 8000 m
Išsisklaidę debesys ne aukštis 3000 ft
Su prošvaistėmis ne aukštis 8000 ft

METAR: SKMD 141300Z 01004KT 340V040 8000 SCT030 BKN080 23/17 Q1020

Laikas: 09:25 (14:25 UTC)


TAF: trūkstamas

Orai ataskaitas ir orų prognozės (METAR, TAF).

turimą stotys yra geltonos ir raudonos taškus žemėlapyje.

Perkelti pele per norėdami pamatyti stoties vardą.

Tada spustelėkite, norėdami matyti oro stebėjimo ir prognozės.

Norėdami pakeisti žemėlapį: spustelėkite ant žalios mygtukų su juodo kryžiaus žemyn,; žalią mygtuką su brūkšneliu, jei norite nutolinti; arba žalių rodyklių gretimoms žemėlapius.


METAR-TAF: